createdAt,value
2016-12-14T00:00:10.165Z,38.93
2016-12-14T00:00:50.729Z,38.83
2016-12-14T00:01:31.267Z,38.93
2016-12-14T00:02:11.784Z,38.93
2016-12-14T00:02:52.366Z,39.12
2016-12-14T00:03:32.899Z,39.22
2016-12-14T00:04:13.447Z,39.41
2016-12-14T00:04:53.961Z,39.61
2016-12-14T00:05:34.505Z,39.31
2016-12-14T00:06:15.054Z,39.34
2016-12-14T00:06:55.599Z,39.51
2016-12-14T00:07:36.132Z,39.79
2016-12-14T00:08:16.650Z,39.79
2016-12-14T00:08:57.200Z,39.61
2016-12-14T00:09:37.724Z,39.41
2016-12-14T00:10:18.256Z,39.41
2016-12-14T00:10:58.786Z,39.79
2016-12-14T00:11:39.351Z,39.61
2016-12-14T00:12:19.903Z,39.7
2016-12-14T00:13:00.448Z,39.31
2016-12-14T00:13:40.987Z,39.79
2016-12-14T00:14:21.531Z,39.79
2016-12-14T00:15:02.063Z,39.62
2016-12-14T00:15:42.582Z,40.28
2016-12-14T00:16:23.126Z,39.51
2016-12-14T00:17:03.668Z,40.19
2016-12-14T00:17:44.207Z,40.09
2016-12-14T00:18:24.744Z,39.99
2016-12-14T00:19:05.264Z,39.99
2016-12-14T00:19:45.813Z,39.99
2016-12-14T00:20:26.336Z,39.99
2016-12-14T00:21:06.891Z,39.79
2016-12-14T00:21:47.417Z,39.99
2016-12-14T00:22:27.955Z,39.79
2016-12-14T00:23:08.472Z,40.09
2016-12-14T00:23:48.996Z,39.99
2016-12-14T00:24:29.552Z,39.99
2016-12-14T00:25:10.099Z,40.09
2016-12-14T00:25:50.613Z,39.7
2016-12-14T00:26:31.168Z,39.79
2016-12-14T00:27:11.714Z,39.99
2016-12-14T00:27:52.259Z,39.7
2016-12-14T00:28:32.779Z,40.09
2016-12-14T00:29:13.298Z,39.7
2016-12-14T00:29:53.852Z,39.99
2016-12-14T00:30:34.394Z,39.99
2016-12-14T00:31:14.954Z,39.79
2016-12-14T00:31:55.506Z,39.61
2016-12-14T00:32:36.035Z,39.99
2016-12-14T00:33:16.563Z,39.61
2016-12-14T00:33:57.108Z,39.7
2016-12-14T00:34:37.671Z,39.62
2016-12-14T00:35:18.204Z,39.89
2016-12-14T00:35:58.764Z,39.79
2016-12-14T00:36:39.317Z,39.89
2016-12-14T00:37:19.873Z,39.89
2016-12-14T00:38:00.418Z,39.72
2016-12-14T00:38:40.931Z,39.79
2016-12-14T00:39:21.462Z,39.79
2016-12-14T00:40:01.999Z,39.7
2016-12-14T00:40:42.532Z,39.61
2016-12-14T00:41:23.043Z,39.7
2016-12-14T00:42:03.572Z,39.79
2016-12-14T00:42:44.076Z,39.62
2016-12-14T00:43:24.633Z,39.99
2016-12-14T00:44:05.136Z,39.79
2016-12-14T00:44:45.665Z,39.99
2016-12-14T00:45:26.198Z,39.99
2016-12-14T00:46:06.724Z,40.09
2016-12-14T00:46:47.282Z,40.09
2016-12-14T00:47:27.799Z,39.99
2016-12-14T00:48:08.335Z,39.99
2016-12-14T00:48:48.845Z,39.89
2016-12-14T00:49:29.374Z,39.99
2016-12-14T00:50:09.952Z,40.28
2016-12-14T00:50:50.486Z,40.37
2016-12-14T00:51:31.028Z,40.59
2016-12-14T00:52:11.599Z,40.49
2016-12-14T00:52:52.127Z,40.28
2016-12-14T00:53:32.673Z,40.28
2016-12-14T00:54:13.238Z,40.19
2016-12-14T00:54:53.783Z,40.3
2016-12-14T00:55:34.327Z,40.11
2016-12-14T00:56:14.881Z,40.28
2016-12-14T00:56:55.436Z,40.01
2016-12-14T00:57:35.975Z,40.28
2016-12-14T00:58:16.516Z,40.3
2016-12-14T00:58:57.033Z,40.3
2016-12-14T00:59:37.556Z,40.3
2016-12-14T01:00:18.076Z,40.69
2016-12-14T01:00:58.605Z,40.49
2016-12-14T01:01:39.129Z,40.39
2016-12-14T01:02:19.657Z,40.59
2016-12-14T01:03:00.179Z,40.69
2016-12-14T01:03:40.695Z,40.66
2016-12-14T01:04:21.211Z,40.76
2016-12-14T01:05:01.739Z,40.66
2016-12-14T01:05:42.267Z,40.69
2016-12-14T01:06:22.790Z,40.78
2016-12-14T01:07:03.303Z,40.49
2016-12-14T01:07:43.831Z,40.3
2016-12-14T01:08:24.340Z,40.47
2016-12-14T01:09:04.880Z,40.49
2016-12-14T01:09:45.392Z,40.37
2016-12-14T01:10:25.939Z,40.57
2016-12-14T01:11:06.468Z,40.28
2016-12-14T01:11:47.008Z,40.3
2016-12-14T01:12:27.528Z,40.37
2016-12-14T01:13:08.064Z,40.28
2016-12-14T01:13:48.636Z,40.28
2016-12-14T01:14:29.151Z,40.37
2016-12-14T01:15:09.686Z,40.47
2016-12-14T01:15:50.277Z,40.28
2016-12-14T01:16:30.829Z,40.37
2016-12-14T01:17:11.363Z,40.28
2016-12-14T01:17:51.884Z,40.28
2016-12-14T01:18:32.399Z,40.28
2016-12-14T01:19:12.934Z,40.28
2016-12-14T01:19:53.472Z,40.66
2016-12-14T01:20:34.019Z,40.28
2016-12-14T01:21:14.521Z,40.47
2016-12-14T01:21:55.049Z,40.37
2016-12-14T01:22:35.571Z,40.28
2016-12-14T01:23:16.105Z,40.66
2016-12-14T01:23:56.620Z,40.47
2016-12-14T01:24:37.174Z,40.47
2016-12-14T01:25:17.699Z,40.28
2016-12-14T01:25:58.223Z,40.47
2016-12-14T01:26:38.764Z,40.47
2016-12-14T01:27:19.320Z,40.28
2016-12-14T01:27:59.850Z,40.37
2016-12-14T01:28:40.401Z,40.39
2016-12-14T01:29:20.934Z,40.47
2016-12-14T01:30:01.494Z,40.57
2016-12-14T01:30:42.061Z,40.57
2016-12-14T01:31:22.609Z,40.37
2016-12-14T01:32:03.125Z,40.19
2016-12-14T01:32:43.678Z,40.57
2016-12-14T01:33:24.182Z,40.66
2016-12-14T01:34:04.730Z,40.57
2016-12-14T01:34:45.221Z,40.57
2016-12-14T01:35:25.771Z,40.47
2016-12-14T01:36:06.285Z,40.47
2016-12-14T01:36:46.796Z,40.57
2016-12-14T01:37:27.475Z,40.57
2016-12-14T01:38:08.098Z,40.76
2016-12-14T01:38:48.680Z,40.57
2016-12-14T01:39:29.238Z,40.76
2016-12-14T01:40:09.798Z,40.95
2016-12-14T01:40:50.327Z,40.86
2016-12-14T01:41:30.858Z,40.76
2016-12-14T01:42:11.400Z,40.76
2016-12-14T01:42:51.932Z,41.14
2016-12-14T01:43:32.448Z,41.34
2016-12-14T01:44:12.972Z,41.24
2016-12-14T01:44:53.482Z,41.44
2016-12-14T01:45:34.019Z,41.34
2016-12-14T01:46:14.568Z,41.24
2016-12-14T01:46:55.123Z,41.24
2016-12-14T01:47:35.643Z,40.86
2016-12-14T01:48:16.175Z,41.05
2016-12-14T01:48:56.741Z,40.86
2016-12-14T01:49:37.262Z,40.78
2016-12-14T01:50:17.791Z,41.34
2016-12-14T01:50:58.370Z,41.24
2016-12-14T01:51:38.888Z,41.44
2016-12-14T01:52:19.428Z,41.36
2016-12-14T01:52:59.970Z,41.63
2016-12-14T01:53:40.519Z,41.63
2016-12-14T01:54:21.083Z,41.72
2016-12-14T01:55:01.610Z,41.24
2016-12-14T01:55:42.139Z,41.44
2016-12-14T01:56:22.703Z,41.34
2016-12-14T01:57:03.209Z,40.97
2016-12-14T01:57:43.754Z,40.86
2016-12-14T01:58:24.342Z,41.14
2016-12-14T01:59:04.888Z,41.24
2016-12-14T01:59:45.424Z,40.95
2016-12-14T02:00:25.926Z,41.72
2016-12-14T02:01:06.451Z,41.53
2016-12-14T02:01:46.984Z,41.44
2016-12-14T02:02:27.539Z,41.63
2016-12-14T02:03:08.035Z,41.63
2016-12-14T02:03:48.585Z,41.72
2016-12-14T02:04:29.133Z,41.63
2016-12-14T02:05:09.672Z,41.53
2016-12-14T02:05:50.248Z,41.72
2016-12-14T02:06:30.831Z,41.53
2016-12-14T02:07:11.365Z,41.94
2016-12-14T02:07:51.909Z,41.34
2016-12-14T02:08:32.432Z,41.27
2016-12-14T02:09:13.008Z,41.75
2016-12-14T02:09:53.583Z,41.82
2016-12-14T02:10:34.108Z,41.34
2016-12-14T02:11:14.687Z,41.63
2016-12-14T02:11:55.216Z,41.05
2016-12-14T02:12:35.805Z,41.14
2016-12-14T02:13:16.359Z,41.24
2016-12-14T02:13:56.937Z,41.36
2016-12-14T02:14:37.501Z,41.44
2016-12-14T02:15:18.027Z,41.07
2016-12-14T02:15:58.569Z,41.24
2016-12-14T02:16:39.086Z,41.27
2016-12-14T02:17:19.648Z,41.27
2016-12-14T02:18:00.170Z,41.14
2016-12-14T02:18:40.717Z,41.24
2016-12-14T02:19:21.252Z,41.24
2016-12-14T02:20:01.804Z,41.24
2016-12-14T02:20:42.327Z,41.34
2016-12-14T02:21:22.869Z,41.44
2016-12-14T02:22:03.415Z,41.44
2016-12-14T02:22:43.912Z,40.95
2016-12-14T02:23:24.427Z,41.63
2016-12-14T02:24:04.987Z,41.07
2016-12-14T02:24:45.544Z,41.17
2016-12-14T02:25:26.059Z,41.84
2016-12-14T02:26:06.658Z,41.63
2016-12-14T02:26:47.193Z,41.34
2016-12-14T02:27:27.719Z,40.95
2016-12-14T02:28:08.258Z,40.95
2016-12-14T02:28:48.767Z,41.34
2016-12-14T02:29:29.299Z,40.88
2016-12-14T02:30:09.824Z,41.17
2016-12-14T02:30:50.357Z,41.34
2016-12-14T02:31:30.933Z,41.27
2016-12-14T02:32:11.474Z,41.24
2016-12-14T02:32:52.008Z,41.24
2016-12-14T02:33:32.546Z,41.14
2016-12-14T02:34:13.061Z,40.88
2016-12-14T02:34:53.611Z,41.05
2016-12-14T02:35:34.124Z,41.14
2016-12-14T02:36:14.693Z,41.24
2016-12-14T02:36:55.221Z,41.24
2016-12-14T02:37:35.738Z,41.27
2016-12-14T02:38:16.308Z,41.36
2016-12-14T02:38:56.838Z,41.27
2016-12-14T02:39:37.358Z,41.14
2016-12-14T02:40:17.878Z,40.86
2016-12-14T02:40:58.396Z,41.17
2016-12-14T02:41:38.901Z,40.95
2016-12-14T02:42:19.418Z,41.34
2016-12-14T02:42:59.968Z,41.34
2016-12-14T02:43:40.475Z,40.97
2016-12-14T02:44:21.000Z,40.76
2016-12-14T02:45:01.518Z,41.34
2016-12-14T02:45:42.088Z,41.24
2016-12-14T02:46:22.647Z,41.24
2016-12-14T02:47:03.169Z,41.36
2016-12-14T02:47:43.673Z,41.05
2016-12-14T02:48:24.193Z,41.05
2016-12-14T02:49:04.717Z,41.05
2016-12-14T02:49:45.244Z,41.14
2016-12-14T02:50:25.829Z,41.44
2016-12-14T02:51:06.384Z,41.34
2016-12-14T02:51:46.917Z,41.63
2016-12-14T02:52:27.463Z,41.53
2016-12-14T02:53:07.998Z,41.44
2016-12-14T02:53:48.526Z,41.63
2016-12-14T02:54:29.043Z,41.24
2016-12-14T02:55:09.582Z,41.05
2016-12-14T02:55:50.095Z,41.34
2016-12-14T02:56:30.630Z,41.34
2016-12-14T02:57:11.152Z,41.05
2016-12-14T02:57:51.685Z,41.34
2016-12-14T02:58:32.214Z,41.34
2016-12-14T02:59:12.734Z,40.95
2016-12-14T02:59:53.277Z,40.95
2016-12-14T03:00:33.854Z,41.53
2016-12-14T03:01:14.365Z,41.53
2016-12-14T03:01:54.879Z,41.63
2016-12-14T03:02:35.397Z,41.24
2016-12-14T03:03:15.929Z,41.36
2016-12-14T03:03:56.440Z,41.82
2016-12-14T03:04:36.977Z,41.53
2016-12-14T03:05:17.499Z,41.53
2016-12-14T03:05:58.053Z,41.53
2016-12-14T03:06:38.592Z,41.53
2016-12-14T03:07:19.121Z,41.63
2016-12-14T03:07:59.666Z,41.53
2016-12-14T03:08:40.181Z,41.53
2016-12-14T03:09:20.700Z,41.75
2016-12-14T03:10:01.235Z,41.63
2016-12-14T03:10:41.758Z,41.72
2016-12-14T03:11:22.290Z,41.53
2016-12-14T03:12:02.825Z,41.75
2016-12-14T03:12:43.346Z,41.72
2016-12-14T03:13:23.872Z,41.44
2016-12-14T03:14:04.398Z,41.53
2016-12-14T03:14:44.937Z,41.72
2016-12-14T03:15:25.457Z,41.53
2016-12-14T03:16:05.995Z,41.44
2016-12-14T03:16:46.547Z,41.72
2016-12-14T03:17:27.081Z,41.72
2016-12-14T03:18:07.620Z,41.82
2016-12-14T03:18:48.127Z,41.44
2016-12-14T03:19:28.651Z,42.02
2016-12-14T03:20:09.183Z,42.11
2016-12-14T03:20:49.704Z,42.02
2016-12-14T03:21:30.246Z,42.11
2016-12-14T03:22:10.786Z,41.72
2016-12-14T03:22:51.315Z,41.53
2016-12-14T03:23:31.822Z,41.63
2016-12-14T03:24:12.344Z,41.82
2016-12-14T03:24:52.897Z,41.63
2016-12-14T03:25:33.416Z,41.92
2016-12-14T03:26:13.925Z,42.11
2016-12-14T03:26:54.449Z,41.75
2016-12-14T03:27:34.987Z,41.53
2016-12-14T03:28:15.504Z,41.72
2016-12-14T03:28:56.037Z,41.75
2016-12-14T03:29:36.569Z,41.44
2016-12-14T03:30:17.110Z,41.44
2016-12-14T03:30:57.654Z,41.53
2016-12-14T03:31:38.177Z,41.53
2016-12-14T03:32:18.756Z,41.53
2016-12-14T03:32:59.318Z,41.63
2016-12-14T03:33:39.844Z,41.34
2016-12-14T03:34:20.368Z,41.72
2016-12-14T03:35:00.892Z,42.02
2016-12-14T03:35:41.425Z,41.92
2016-12-14T03:36:21.960Z,41.82
2016-12-14T03:37:02.488Z,41.82
2016-12-14T03:37:43.012Z,41.92
2016-12-14T03:38:23.576Z,41.94
2016-12-14T03:39:04.172Z,42.32
2016-12-14T03:39:44.715Z,42.21
2016-12-14T03:40:25.259Z,42.02
2016-12-14T03:41:05.796Z,42.42
2016-12-14T03:41:46.345Z,42.21
2016-12-14T03:42:26.901Z,42.21
2016-12-14T03:43:07.422Z,42.32
2016-12-14T03:43:47.929Z,42.11
2016-12-14T03:44:28.449Z,42.23
2016-12-14T03:45:08.969Z,42.13
2016-12-14T03:45:49.523Z,41.92
2016-12-14T03:46:30.043Z,42.11
2016-12-14T03:47:10.603Z,42.21
2016-12-14T03:47:51.148Z,42.11
2016-12-14T03:48:31.679Z,42.02
2016-12-14T03:49:12.198Z,41.94
2016-12-14T03:49:52.725Z,41.92
2016-12-14T03:50:33.254Z,41.92
2016-12-14T03:51:13.765Z,41.94
2016-12-14T03:51:54.315Z,42.21
2016-12-14T03:52:34.867Z,42.3
2016-12-14T03:53:15.414Z,42.13
2016-12-14T03:53:55.949Z,42.3
2016-12-14T03:54:36.495Z,42.21
2016-12-14T03:55:17.044Z,42.4
2016-12-14T03:55:57.582Z,42.13
2016-12-14T03:56:38.127Z,41.82
2016-12-14T03:57:18.680Z,42.02
2016-12-14T03:57:59.233Z,41.72
2016-12-14T03:58:39.775Z,41.82
2016-12-14T03:59:20.312Z,41.72
2016-12-14T04:00:00.856Z,41.72
2016-12-14T04:00:41.417Z,41.82
2016-12-14T04:01:21.937Z,41.82
2016-12-14T04:02:02.469Z,41.72
2016-12-14T04:02:43.007Z,41.72
2016-12-14T04:03:23.539Z,42.11
2016-12-14T04:04:04.070Z,41.72
2016-12-14T04:04:44.597Z,41.92
2016-12-14T04:05:25.130Z,42.02
2016-12-14T04:06:05.685Z,41.92
2016-12-14T04:06:46.209Z,41.72
2016-12-14T04:07:26.741Z,42.02
2016-12-14T04:08:07.276Z,41.63
2016-12-14T04:08:47.792Z,41.82
2016-12-14T04:09:28.316Z,41.72
2016-12-14T04:10:08.843Z,41.72
2016-12-14T04:10:49.366Z,41.82
2016-12-14T04:11:29.888Z,41.82
2016-12-14T04:12:10.411Z,41.72
2016-12-14T04:12:50.937Z,41.82
2016-12-14T04:13:31.457Z,42.02
2016-12-14T04:14:11.992Z,41.53
2016-12-14T04:14:52.521Z,42.02
2016-12-14T04:15:33.054Z,41.94
2016-12-14T04:16:13.570Z,41.84
2016-12-14T04:16:54.130Z,41.92
2016-12-14T04:17:34.681Z,41.75
2016-12-14T04:18:15.245Z,41.72
2016-12-14T04:18:55.784Z,41.82
2016-12-14T04:19:36.299Z,41.82
2016-12-14T04:20:16.834Z,41.84
2016-12-14T04:20:57.352Z,41.94
2016-12-14T04:21:37.892Z,41.94
2016-12-14T04:22:18.396Z,41.92
2016-12-14T04:22:58.927Z,42.02
2016-12-14T04:23:39.440Z,41.72
2016-12-14T04:24:19.965Z,42.03
2016-12-14T04:25:00.488Z,42.11
2016-12-14T04:25:41.013Z,41.92
2016-12-14T04:26:21.524Z,42.02
2016-12-14T04:27:02.058Z,42.02
2016-12-14T04:27:42.571Z,42.02
2016-12-14T04:28:23.101Z,42.02
2016-12-14T04:29:03.629Z,41.72
2016-12-14T04:29:44.162Z,41.53
2016-12-14T04:30:24.688Z,41.53
2016-12-14T04:31:05.220Z,41.44
2016-12-14T04:31:45.764Z,41.44
2016-12-14T04:32:26.276Z,41.72
2016-12-14T04:33:06.818Z,41.53
2016-12-14T04:33:47.354Z,41.44
2016-12-14T04:34:27.887Z,41.44
2016-12-14T04:35:08.408Z,41.44
2016-12-14T04:35:48.947Z,41.53
2016-12-14T04:36:29.474Z,41.63
2016-12-14T04:37:10.001Z,41.63
2016-12-14T04:37:50.535Z,41.63
2016-12-14T04:38:31.068Z,41.82
2016-12-14T04:39:11.594Z,41.82
2016-12-14T04:39:52.127Z,41.75
2016-12-14T04:40:32.666Z,41.82
2016-12-14T04:41:13.248Z,41.72
2016-12-14T04:41:53.787Z,41.53
2016-12-14T04:42:34.316Z,41.44
2016-12-14T04:43:14.848Z,41.53
2016-12-14T04:43:55.394Z,41.44
2016-12-14T04:44:35.938Z,41.82
2016-12-14T04:45:16.468Z,41.63
2016-12-14T04:45:57.003Z,41.34
2016-12-14T04:46:37.537Z,41.34
2016-12-14T04:47:18.058Z,41.14
2016-12-14T04:47:58.574Z,41.63
2016-12-14T04:48:39.104Z,41.72
2016-12-14T04:49:19.622Z,41.34
2016-12-14T04:50:00.175Z,41.53
2016-12-14T04:50:40.692Z,41.44
2016-12-14T04:51:21.251Z,41.14
2016-12-14T04:52:01.774Z,41.44
2016-12-14T04:52:42.321Z,41.05
2016-12-14T04:53:22.854Z,41.14
2016-12-14T04:54:03.357Z,41.34
2016-12-14T04:54:43.909Z,41.05
2016-12-14T04:55:24.453Z,41.34
2016-12-14T04:56:04.982Z,41.34
2016-12-14T04:56:45.503Z,41.24
2016-12-14T04:57:26.044Z,41.34
2016-12-14T04:58:06.563Z,41.34
2016-12-14T04:58:47.160Z,41.14
2016-12-14T04:59:27.684Z,41.17
2016-12-14T05:00:08.224Z,41.34
2016-12-14T05:00:48.750Z,41.36
2016-12-14T05:01:29.277Z,41.34
2016-12-14T05:02:09.810Z,41.05
2016-12-14T05:02:50.356Z,41.34
2016-12-14T05:03:30.903Z,41.34
2016-12-14T05:04:11.438Z,41.44
2016-12-14T05:04:52.016Z,41.05
2016-12-14T05:05:32.547Z,41.14
2016-12-14T05:06:13.041Z,41.34
2016-12-14T05:06:53.591Z,41.63
2016-12-14T05:07:34.110Z,41.63
2016-12-14T05:08:14.626Z,41.14
2016-12-14T05:08:55.142Z,40.95
2016-12-14T05:09:35.677Z,41.65
2016-12-14T05:10:16.182Z,40.95
2016-12-14T05:10:56.697Z,41.34
2016-12-14T05:11:37.230Z,41.34
2016-12-14T05:12:17.805Z,41.24
2016-12-14T05:12:58.339Z,41.24
2016-12-14T05:13:38.864Z,41.24
2016-12-14T05:14:19.395Z,41.24
2016-12-14T05:14:59.924Z,41.14
2016-12-14T05:15:40.451Z,41.14
2016-12-14T05:16:20.987Z,41.34
2016-12-14T05:17:01.518Z,41.44
2016-12-14T05:17:42.053Z,41.24
2016-12-14T05:18:22.574Z,41.27
2016-12-14T05:19:03.095Z,40.86
2016-12-14T05:19:43.630Z,41.34
2016-12-14T05:20:24.173Z,41.34
2016-12-14T05:21:04.682Z,41.34
2016-12-14T05:21:45.200Z,40.86
2016-12-14T05:22:25.714Z,41.24
2016-12-14T05:23:06.237Z,41.17
2016-12-14T05:23:46.758Z,41.14
2016-12-14T05:24:27.296Z,41.17
2016-12-14T05:25:07.841Z,41.34
2016-12-14T05:25:48.393Z,41.14
2016-12-14T05:26:28.949Z,41.34
2016-12-14T05:27:09.498Z,41.27
2016-12-14T05:27:50.015Z,41.34
2016-12-14T05:28:30.566Z,41.44
2016-12-14T05:29:11.164Z,41.53
2016-12-14T05:29:51.681Z,41.34
2016-12-14T05:30:32.210Z,41.44
2016-12-14T05:31:12.724Z,41.14
2016-12-14T05:31:53.250Z,41.05
2016-12-14T05:32:33.795Z,41.14
2016-12-14T05:33:14.309Z,40.95
2016-12-14T05:33:54.842Z,41.34
2016-12-14T05:34:35.361Z,41.14
2016-12-14T05:35:15.893Z,41.07
2016-12-14T05:35:56.413Z,41.24
2016-12-14T05:36:36.935Z,41.14
2016-12-14T05:37:17.463Z,41.34
2016-12-14T05:37:57.994Z,41.05
2016-12-14T05:38:38.545Z,41.27
2016-12-14T05:39:19.071Z,40.76
2016-12-14T05:39:59.616Z,41.53
2016-12-14T05:40:40.132Z,41.05
2016-12-14T05:41:20.671Z,41.34
2016-12-14T05:42:01.205Z,40.97
2016-12-14T05:42:41.754Z,40.97
2016-12-14T05:43:22.298Z,41.24
2016-12-14T05:44:02.839Z,41.34
2016-12-14T05:44:43.394Z,41.34
2016-12-14T05:45:23.940Z,41.24
2016-12-14T05:46:04.495Z,41.34
2016-12-14T05:46:45.034Z,40.95
2016-12-14T05:47:25.566Z,41.63
2016-12-14T05:48:06.120Z,41.14
2016-12-14T05:48:46.638Z,41.53
2016-12-14T05:49:27.156Z,41.63
2016-12-14T05:50:07.682Z,41.63
2016-12-14T05:50:48.202Z,41.34
2016-12-14T05:51:28.734Z,41.63
2016-12-14T05:52:09.292Z,41.72
2016-12-14T05:52:49.831Z,41.44
2016-12-14T05:53:30.358Z,41.82
2016-12-14T05:54:10.874Z,41.24
2016-12-14T05:54:51.417Z,41.44
2016-12-14T05:55:31.958Z,40.95
2016-12-14T05:56:12.479Z,41.34
2016-12-14T05:56:53.039Z,41.36
2016-12-14T05:57:33.535Z,41.24
2016-12-14T05:58:14.068Z,41.14
2016-12-14T05:58:54.627Z,41.24
2016-12-14T05:59:35.196Z,41.34
2016-12-14T06:00:15.742Z,41.36
2016-12-14T06:02:09.088Z,41.14
2016-12-14T06:02:49.623Z,40.88
2016-12-14T06:03:30.118Z,40.95
2016-12-14T06:04:10.654Z,41.14
2016-12-14T06:04:51.201Z,41.34
2016-12-14T06:05:31.689Z,41.14
2016-12-14T06:06:12.241Z,41.24
2016-12-14T06:06:52.795Z,41.34
2016-12-14T06:07:33.326Z,41.14
2016-12-14T06:08:13.870Z,40.86
2016-12-14T06:08:54.420Z,41.24
2016-12-14T06:09:35.035Z,41.24
2016-12-14T06:10:15.558Z,41.24
2016-12-14T06:10:56.125Z,41.14
2016-12-14T06:11:36.636Z,41.05
2016-12-14T06:12:17.249Z,41.14
2016-12-14T06:12:57.756Z,41.14
2016-12-14T06:13:38.307Z,41.24
2016-12-14T06:14:18.829Z,41.34
2016-12-14T06:14:59.369Z,40.95
2016-12-14T06:15:39.927Z,41.24
2016-12-14T06:16:20.478Z,40.97
2016-12-14T06:17:01.030Z,40.88
2016-12-14T06:17:41.531Z,41.14
2016-12-14T06:18:22.052Z,41.34
2016-12-14T06:19:02.584Z,41.44
2016-12-14T06:19:43.136Z,41.05
2016-12-14T06:20:23.657Z,41.63
2016-12-14T06:21:04.192Z,40.95
2016-12-14T06:21:44.725Z,41.53
2016-12-14T06:22:25.262Z,41.14
2016-12-14T06:23:05.803Z,41.82
2016-12-14T06:23:46.328Z,41.44
2016-12-14T06:24:26.838Z,41.72
2016-12-14T06:25:07.357Z,41.63
2016-12-14T06:25:47.913Z,41.72
2016-12-14T06:26:28.454Z,41.34
2016-12-14T06:27:09.002Z,41.53
2016-12-14T06:27:49.551Z,41.53
2016-12-14T06:28:30.095Z,41.44
2016-12-14T06:29:10.630Z,41.44
2016-12-14T06:29:51.149Z,41.44
2016-12-14T06:30:31.726Z,41.63
2016-12-14T06:31:12.269Z,41.72
2016-12-14T06:31:52.790Z,41.82
2016-12-14T06:32:33.319Z,41.34
2016-12-14T06:33:13.843Z,41.63
2016-12-14T06:33:54.414Z,41.44
2016-12-14T06:34:34.949Z,41.44
2016-12-14T06:35:15.528Z,41.14
2016-12-14T06:35:56.060Z,41.24
2016-12-14T06:36:36.600Z,41.24
2016-12-14T06:37:17.128Z,41.24
2016-12-14T06:37:57.685Z,41.05
2016-12-14T06:38:38.216Z,41.24
2016-12-14T06:39:18.738Z,41.24
2016-12-14T06:39:59.253Z,41.36
2016-12-14T06:40:39.800Z,41.17
2016-12-14T06:41:20.379Z,41.14
2016-12-14T06:42:00.908Z,41.14
2016-12-14T06:42:41.458Z,41.14
2016-12-14T06:43:21.974Z,41.14
2016-12-14T06:44:02.479Z,41.17
2016-12-14T06:44:43.025Z,41.24
2016-12-14T06:45:23.565Z,41.24
2016-12-14T06:46:04.099Z,41.14
2016-12-14T06:46:44.645Z,41.07
2016-12-14T06:47:25.188Z,41.14
2016-12-14T06:48:05.720Z,41.34
2016-12-14T06:48:46.258Z,40.95
2016-12-14T06:49:26.889Z,41.17
2016-12-14T06:50:07.405Z,41.44
2016-12-14T06:50:47.944Z,41.14
2016-12-14T06:51:28.463Z,41.05
2016-12-14T06:52:08.970Z,41.72
2016-12-14T06:52:49.544Z,41.82
2016-12-14T06:53:30.084Z,41.27
2016-12-14T06:54:10.645Z,41.14
2016-12-14T06:54:51.160Z,41.72
2016-12-14T06:55:31.692Z,41.34
2016-12-14T06:56:12.240Z,41.05
2016-12-14T06:56:52.764Z,41.55
2016-12-14T06:57:33.299Z,41.05
2016-12-14T06:58:13.809Z,41.34
2016-12-14T06:58:54.330Z,41.63
2016-12-14T06:59:34.874Z,41.82
2016-12-14T07:00:15.460Z,41.72
2016-12-14T07:00:56.015Z,41.17
2016-12-14T07:01:36.551Z,41.14
2016-12-14T07:02:17.103Z,41.72
2016-12-14T07:02:57.688Z,41.63
2016-12-14T07:03:38.269Z,41.53
2016-12-14T07:04:18.815Z,41.53
2016-12-14T07:04:59.341Z,41.63
2016-12-14T07:05:39.869Z,41.63
2016-12-14T07:06:20.441Z,41.63
2016-12-14T07:07:00.986Z,41.53
2016-12-14T07:07:41.525Z,41.65
2016-12-14T07:08:22.068Z,41.53
2016-12-14T07:09:02.604Z,41.65
2016-12-14T07:09:43.174Z,41.44
2016-12-14T07:10:23.690Z,41.46
2016-12-14T07:11:04.199Z,41.44
2016-12-14T07:11:44.783Z,41.65
2016-12-14T07:12:25.363Z,41.53
2016-12-14T07:13:05.906Z,41.55
2016-12-14T07:13:46.511Z,41.72
2016-12-14T07:14:27.044Z,41.65
2016-12-14T07:15:07.570Z,41.44
2016-12-14T07:15:48.114Z,41.55
2016-12-14T07:16:28.629Z,41.46
2016-12-14T07:17:09.179Z,41.34
2016-12-14T07:17:49.711Z,41.53
2016-12-14T07:18:30.229Z,41.65
2016-12-14T07:19:10.786Z,41.53
2016-12-14T07:19:51.308Z,41.53
2016-12-14T07:20:31.811Z,41.63
2016-12-14T07:21:12.361Z,41.55
2016-12-14T07:21:52.903Z,41.44
2016-12-14T07:22:33.458Z,41.63
2016-12-14T07:23:13.987Z,41.63
2016-12-14T07:23:54.605Z,41.65
2016-12-14T07:24:35.152Z,41.72
2016-12-14T07:25:15.686Z,41.44
2016-12-14T07:25:56.257Z,41.44
2016-12-14T07:26:36.807Z,41.53
2016-12-14T07:27:17.343Z,41.53
2016-12-14T07:27:57.863Z,41.44
2016-12-14T07:28:38.409Z,41.82
2016-12-14T07:29:18.960Z,41.72
2016-12-14T07:29:59.498Z,41.84
2016-12-14T07:30:40.023Z,41.63
2016-12-14T07:31:20.599Z,41.72
2016-12-14T07:32:01.129Z,41.82
2016-12-14T07:32:41.685Z,41.72
2016-12-14T07:33:22.233Z,41.14
2016-12-14T07:34:02.761Z,41.24
2016-12-14T07:34:43.338Z,41.24
2016-12-14T07:35:23.869Z,41.05
2016-12-14T07:36:04.383Z,41.63
2016-12-14T07:36:44.906Z,41.44
2016-12-14T07:37:25.433Z,41.44
2016-12-14T07:38:05.991Z,41.34
2016-12-14T07:38:46.502Z,41.24
2016-12-14T07:39:27.092Z,41.34
2016-12-14T07:40:07.641Z,41.24
2016-12-14T07:40:48.179Z,41.14
2016-12-14T07:41:28.716Z,41.24
2016-12-14T07:42:09.273Z,41.05
2016-12-14T07:42:49.830Z,41.34
2016-12-14T07:43:30.376Z,41.24
2016-12-14T07:44:10.907Z,41.07
2016-12-14T07:44:51.424Z,41.05
2016-12-14T07:45:31.949Z,41.14
2016-12-14T07:46:12.475Z,41.27
2016-12-14T07:46:53.054Z,41.24
2016-12-14T07:47:33.526Z,40.95
2016-12-14T07:48:14.052Z,41.34
2016-12-14T07:48:54.588Z,41.17
2016-12-14T07:49:35.136Z,41.44
2016-12-14T07:50:15.697Z,41.24
2016-12-14T07:50:56.236Z,41.53
2016-12-14T07:51:36.841Z,41.55
2016-12-14T07:52:17.372Z,41.44
2016-12-14T07:52:57.917Z,41.44
2016-12-14T07:53:38.467Z,41.63
2016-12-14T07:54:19.011Z,41.55
2016-12-14T07:54:59.548Z,41.53
2016-12-14T07:55:40.091Z,41.63
2016-12-14T07:56:20.655Z,41.53
2016-12-14T07:57:01.260Z,41.72
2016-12-14T07:57:41.812Z,41.53
2016-12-14T07:58:22.398Z,41.63
2016-12-14T07:59:02.971Z,41.72
2016-12-14T07:59:43.520Z,41.44
2016-12-14T08:00:24.083Z,41.44
2016-12-14T08:01:04.644Z,41.44
2016-12-14T08:01:45.251Z,41.44
2016-12-14T08:02:25.792Z,41.72
2016-12-14T08:03:06.320Z,41.17
2016-12-14T08:03:46.843Z,41.34
2016-12-14T08:04:27.376Z,41.75
2016-12-14T08:05:07.903Z,41.65
2016-12-14T08:05:48.453Z,41.63
2016-12-14T08:06:29.004Z,41.72
2016-12-14T08:07:09.599Z,41.72
2016-12-14T08:07:50.156Z,41.44
2016-12-14T08:08:30.677Z,41.63
2016-12-14T08:09:11.240Z,41.72
2016-12-14T08:09:51.746Z,41.72
2016-12-14T08:10:32.296Z,41.65
2016-12-14T08:11:13.301Z,41.72
2016-12-14T08:11:54.142Z,41.53
2016-12-14T08:12:34.932Z,41.65
2016-12-14T08:13:15.760Z,41.72
2016-12-14T08:13:56.639Z,41.55
2016-12-14T08:14:37.457Z,41.46
2016-12-14T08:15:18.002Z,41.65
2016-12-14T08:15:58.638Z,41.75
2016-12-14T08:16:39.230Z,41.75
2016-12-14T08:17:19.747Z,41.72
2016-12-14T08:18:00.326Z,41.75
2016-12-14T08:18:40.908Z,41.75
2016-12-14T08:19:21.567Z,41.65
2016-12-14T08:20:02.133Z,41.44
2016-12-14T08:20:42.655Z,41.75
2016-12-14T08:21:23.271Z,42.02
2016-12-14T08:22:03.813Z,41.94
2016-12-14T08:22:44.385Z,42.13
2016-12-14T08:23:25.022Z,41.63
2016-12-14T08:24:05.568Z,41.44
2016-12-14T08:24:46.177Z,41.44
2016-12-14T08:25:26.793Z,41.72
2016-12-14T08:26:07.358Z,41.63
2016-12-14T08:26:47.903Z,41.75
2016-12-14T08:27:28.438Z,42.11
2016-12-14T08:28:08.977Z,41.72
2016-12-14T08:28:49.535Z,41.82
2016-12-14T08:29:30.130Z,41.46
2016-12-14T08:30:10.614Z,41.75
2016-12-14T08:30:51.153Z,41.65
2016-12-14T08:31:31.701Z,41.72
2016-12-14T08:32:12.207Z,41.72
2016-12-14T08:32:52.743Z,41.72
2016-12-14T08:33:33.279Z,41.36
2016-12-14T08:34:13.802Z,41.44
2016-12-14T08:34:54.324Z,41.53
2016-12-14T08:35:34.837Z,41.44
2016-12-14T08:36:15.351Z,41.53
2016-12-14T08:36:55.881Z,41.63
2016-12-14T08:37:36.550Z,41.63
2016-12-14T08:38:17.060Z,41.94
2016-12-14T08:38:57.610Z,41.92
2016-12-14T08:39:38.151Z,41.84
2016-12-14T08:40:18.675Z,41.84
2016-12-14T08:40:59.201Z,42.02
2016-12-14T08:41:39.717Z,41.84
2016-12-14T08:42:20.240Z,41.63
2016-12-14T08:43:00.818Z,41.44
2016-12-14T08:43:41.296Z,41.46